TimeEST,TemperatureF,Dew PointF,Humidity,Sea Level PressureIn,VisibilityMPH,Wind Direction,Wind SpeedMPH,Gust SpeedMPH,PrecipitationIn,Events,Conditions,WindDirDegrees,DateUTC
12:54 AM,26.1,23.0,88,30.35,9.0,Calm,Calm,-,N/A,,Clear,0,2012-11-16 05:54:00
1:54 AM,26.1,23.0,88,30.36,10.0,Calm,Calm,-,N/A,,Clear,0,2012-11-16 06:54:00
2:54 AM,25.0,21.9,88,30.36,9.0,Calm,Calm,-,N/A,,Clear,0,2012-11-16 07:54:00
3:54 AM,25.0,21.9,88,30.36,9.0,Calm,Calm,-,N/A,,Clear,0,2012-11-16 08:54:00
4:54 AM,24.1,21.9,91,30.37,9.0,Calm,Calm,-,N/A,,Clear,0,2012-11-16 09:54:00
5:54 AM,24.1,21.0,88,30.39,9.0,Calm,Calm,-,N/A,,Clear,0,2012-11-16 10:54:00
7:54 AM,28.9,26.1,89,30.41,10.0,Calm,Calm,-,N/A,,Clear,0,2012-11-16 12:54:00
8:54 AM,33.1,28.9,85,30.42,10.0,Calm,Calm,-,N/A,,Clear,0,2012-11-16 13:54:00
9:54 AM,39.9,28.0,63,30.44,10.0,NNE,4.6,-,N/A,,Clear,20,2012-11-16 14:54:00
10:54 AM,42.1,30.0,62,30.43,10.0,NNE,3.5,-,N/A,,Clear,20,2012-11-16 15:54:00
11:54 AM,44.1,30.9,60,30.42,10.0,NW,5.8,-,N/A,,Clear,320,2012-11-16 16:54:00
12:54 PM,45.0,30.9,58,30.41,10.0,WNW,6.9,-,N/A,,Clear,300,2012-11-16 17:54:00
1:54 PM,45.0,30.0,56,30.41,10.0,NW,6.9,-,N/A,,Clear,310,2012-11-16 18:54:00
2:54 PM,45.0,32.0,60,30.43,10.0,NNW,8.1,-,N/A,,Clear,330,2012-11-16 19:54:00
3:54 PM,42.1,32.0,67,30.45,10.0,NNW,5.8,-,N/A,,Clear,340,2012-11-16 20:54:00
4:54 PM,39.0,30.9,73,30.45,10.0,Calm,Calm,-,N/A,,Clear,0,2012-11-16 21:54:00
5:54 PM,35.1,30.0,82,30.48,10.0,Calm,Calm,-,N/A,,Clear,0,2012-11-16 22:54:00
6:54 PM,33.1,30.0,89,30.49,9.0,Calm,Calm,-,N/A,,Clear,0,2012-11-16 23:54:00
7:54 PM,30.9,28.9,92,30.51,9.0,Calm,Calm,-,N/A,,Clear,0,2012-11-17 00:54:00
8:54 PM,28.9,27.0,92,30.52,5.0,Calm,Calm,-,N/A,,Clear,0,2012-11-17 01:54:00
9:54 PM,28.9,27.0,92,30.52,6.0,Calm,Calm,-,N/A,,Clear,0,2012-11-17 02:54:00
10:54 PM,27.0,25.0,92,30.52,5.0,Calm,Calm,-,N/A,,Clear,0,2012-11-17 03:54:00
11:54 PM,27.0,25.0,92,30.52,5.0,Calm,Calm,-,N/A,,Clear,0,2012-11-17 04:54:00